sensor_id;sensor_type;location;lat;lon;timestamp;P1;durP1;ratioP1;P2;durP2;ratioP2
57107;SDS011;42987;52.916;6.542;2023-02-28T00:00:49;9.63;;;4.10;;
57107;SDS011;42987;52.916;6.542;2023-02-28T00:03:15;10.65;;;4.57;;
57107;SDS011;42987;52.916;6.542;2023-02-28T00:05:42;10.65;;;4.43;;
57107;SDS011;42987;52.916;6.542;2023-02-28T00:08:08;9.63;;;4.50;;
57107;SDS011;42987;52.916;6.542;2023-02-28T00:10:34;10.48;;;4.78;;
57107;SDS011;42987;52.916;6.542;2023-02-28T00:13:05;8.73;;;4.70;;
57107;SDS011;42987;52.916;6.542;2023-02-28T00:17:57;6.68;;;4.47;;
57107;SDS011;42987;52.916;6.542;2023-02-28T00:20:23;8.20;;;4.32;;
57107;SDS011;42987;52.916;6.542;2023-02-28T00:22:49;8.82;;;5.35;;
57107;SDS011;42987;52.916;6.542;2023-02-28T00:25:18;10.32;;;4.72;;
57107;SDS011;42987;52.916;6.542;2023-02-28T00:27:45;8.15;;;4.63;;
57107;SDS011;42987;52.916;6.542;2023-02-28T00:30:13;9.75;;;4.20;;
57107;SDS011;42987;52.916;6.542;2023-02-28T00:32:41;8.70;;;4.45;;
57107;SDS011;42987;52.916;6.542;2023-02-28T00:35:07;8.30;;;4.63;;
57107;SDS011;42987;52.916;6.542;2023-02-28T00:37:34;9.32;;;4.60;;
57107;SDS011;42987;52.916;6.542;2023-02-28T00:40:00;13.48;;;5.60;;
57107;SDS011;42987;52.916;6.542;2023-02-28T00:42:27;12.25;;;5.32;;
57107;SDS011;42987;52.916;6.542;2023-02-28T00:44:53;12.57;;;5.70;;
57107;SDS011;42987;52.916;6.542;2023-02-28T00:47:19;8.48;;;5.47;;
57107;SDS011;42987;52.916;6.542;2023-02-28T00:49:45;10.25;;;5.20;;
57107;SDS011;42987;52.916;6.542;2023-02-28T00:52:10;10.13;;;5.43;;
57107;SDS011;42987;52.916;6.542;2023-02-28T00:54:36;9.23;;;4.70;;
57107;SDS011;42987;52.916;6.542;2023-02-28T00:57:02;8.90;;;4.75;;
57107;SDS011;42987;52.916;6.542;2023-02-28T00:59:28;10.07;;;5.43;;
57107;SDS011;42987;52.916;6.542;2023-02-28T01:01:57;10.52;;;5.55;;
57107;SDS011;42987;52.916;6.542;2023-02-28T01:04:22;6.55;;;4.75;;
57107;SDS011;42987;52.916;6.542;2023-02-28T01:06:48;12.43;;;5.38;;
57107;SDS011;42987;52.916;6.542;2023-02-28T01:09:14;10.38;;;5.00;;
57107;SDS011;42987;52.916;6.542;2023-02-28T01:11:40;8.75;;;5.57;;
57107;SDS011;42987;52.916;6.542;2023-02-28T01:14:09;9.18;;;5.85;;
57107;SDS011;42987;52.916;6.542;2023-02-28T01:16:43;9.52;;;5.07;;
57107;SDS011;42987;52.916;6.542;2023-02-28T01:19:12;12.32;;;5.30;;
57107;SDS011;42987;52.916;6.542;2023-02-28T01:21:38;11.68;;;5.72;;
57107;SDS011;42987;52.916;6.542;2023-02-28T01:24:04;8.57;;;5.40;;
57107;SDS011;42987;52.916;6.542;2023-02-28T01:26:30;9.38;;;5.10;;
57107;SDS011;42987;52.916;6.542;2023-02-28T01:28:57;10.00;;;5.40;;
57107;SDS011;42987;52.916;6.542;2023-02-28T01:31:23;11.45;;;6.40;;
57107;SDS011;42987;52.916;6.542;2023-02-28T01:33:52;11.43;;;6.20;;
57107;SDS011;42987;52.916;6.542;2023-02-28T01:36:21;11.73;;;5.95;;
57107;SDS011;42987;52.916;6.542;2023-02-28T01:38:50;11.40;;;6.20;;
57107;SDS011;42987;52.916;6.542;2023-02-28T01:43:55;11.82;;;6.15;;
57107;SDS011;42987;52.916;6.542;2023-02-28T01:46:25;10.80;;;6.10;;
57107;SDS011;42987;52.916;6.542;2023-02-28T01:48:54;9.57;;;6.40;;
57107;SDS011;42987;52.916;6.542;2023-02-28T01:51:28;9.23;;;5.68;;
57107;SDS011;42987;52.916;6.542;2023-02-28T01:54:05;12.52;;;7.35;;
57107;SDS011;42987;52.916;6.542;2023-02-28T01:56:39;11.13;;;6.68;;
57107;SDS011;42987;52.916;6.542;2023-02-28T01:59:09;11.98;;;6.53;;
57107;SDS011;42987;52.916;6.542;2023-02-28T02:01:37;9.80;;;6.43;;
57107;SDS011;42987;52.916;6.542;2023-02-28T02:04:03;9.93;;;6.30;;
57107;SDS011;42987;52.916;6.542;2023-02-28T02:06:40;13.57;;;7.43;;
57107;SDS011;42987;52.916;6.542;2023-02-28T02:09:09;10.05;;;6.40;;
57107;SDS011;42987;52.916;6.542;2023-02-28T02:11:36;11.15;;;6.35;;
57107;SDS011;42987;52.916;6.542;2023-02-28T02:16:59;9.48;;;5.85;;
57107;SDS011;42987;52.916;6.542;2023-02-28T02:25:30;8.93;;;5.97;;
57107;SDS011;42987;52.916;6.542;2023-02-28T02:27:55;9.43;;;6.53;;
57107;SDS011;42987;52.916;6.542;2023-02-28T02:41:49;9.73;;;7.07;;
57107;SDS011;42987;52.916;6.542;2023-02-28T02:44:36;9.52;;;7.07;;
57107;SDS011;42987;52.916;6.542;2023-02-28T02:47:18;11.00;;;7.38;;
57107;SDS011;42987;52.916;6.542;2023-02-28T02:49:48;8.75;;;7.10;;
57107;SDS011;42987;52.916;6.542;2023-02-28T02:52:16;8.55;;;7.07;;
57107;SDS011;42987;52.916;6.542;2023-02-28T02:54:47;10.23;;;7.47;;
57107;SDS011;42987;52.916;6.542;2023-02-28T02:57:31;11.80;;;8.02;;
57107;SDS011;42987;52.916;6.542;2023-02-28T02:59:58;12.13;;;7.78;;
57107;SDS011;42987;52.916;6.542;2023-02-28T03:02:26;12.93;;;8.10;;
57107;SDS011;42987;52.916;6.542;2023-02-28T03:04:59;12.18;;;8.43;;
57107;SDS011;42987;52.916;6.542;2023-02-28T03:07:29;11.38;;;8.07;;
57107;SDS011;42987;52.916;6.542;2023-02-28T03:09:55;12.05;;;8.27;;
57107;SDS011;42987;52.916;6.542;2023-02-28T03:12:23;13.95;;;8.80;;
57107;SDS011;42987;52.916;6.542;2023-02-28T03:15:11;11.32;;;8.38;;
57107;SDS011;42987;52.916;6.542;2023-02-28T03:30:57;14.05;;;9.75;;
57107;SDS011;42987;52.916;6.542;2023-02-28T03:33:32;15.30;;;10.23;;
57107;SDS011;42987;52.916;6.542;2023-02-28T03:36:06;12.30;;;9.35;;
57107;SDS011;42987;52.916;6.542;2023-02-28T03:38:38;16.35;;;11.25;;
57107;SDS011;42987;52.916;6.542;2023-02-28T03:43:40;13.88;;;10.32;;
57107;SDS011;42987;52.916;6.542;2023-02-28T03:46:10;15.33;;;10.70;;
57107;SDS011;42987;52.916;6.542;2023-02-28T03:48:44;12.15;;;10.82;;
57107;SDS011;42987;52.916;6.542;2023-02-28T03:51:16;15.80;;;12.18;;
57107;SDS011;42987;52.916;6.542;2023-02-28T03:53:49;15.00;;;12.40;;
57107;SDS011;42987;52.916;6.542;2023-02-28T03:59:10;20.17;;;14.48;;
57107;SDS011;42987;52.916;6.542;2023-02-28T04:01:44;19.92;;;15.13;;
57107;SDS011;42987;52.916;6.542;2023-02-28T04:04:12;17.52;;;13.77;;
57107;SDS011;42987;52.916;6.542;2023-02-28T04:06:39;24.75;;;17.85;;
57107;SDS011;42987;52.916;6.542;2023-02-28T04:09:06;17.83;;;15.02;;
57107;SDS011;42987;52.916;6.542;2023-02-28T04:12:06;16.30;;;13.90;;
57107;SDS011;42987;52.916;6.542;2023-02-28T04:14:25;22.60;;;17.15;;
57107;SDS011;42987;52.916;6.542;2023-02-28T04:16:51;22.08;;;16.02;;
57107;SDS011;42987;52.916;6.542;2023-02-28T04:19:17;23.75;;;17.55;;
57107;SDS011;42987;52.916;6.542;2023-02-28T04:21:48;23.10;;;18.80;;
57107;SDS011;42987;52.916;6.542;2023-02-28T04:24:18;19.27;;;17.00;;
57107;SDS011;42987;52.916;6.542;2023-02-28T04:26:50;20.35;;;15.82;;
57107;SDS011;42987;52.916;6.542;2023-02-28T04:29:28;20.77;;;16.30;;
57107;SDS011;42987;52.916;6.542;2023-02-28T04:31:56;22.30;;;18.02;;
57107;SDS011;42987;52.916;6.542;2023-02-28T04:34:24;23.02;;;18.77;;
57107;SDS011;42987;52.916;6.542;2023-02-28T04:36:54;29.40;;;21.77;;
57107;SDS011;42987;52.916;6.542;2023-02-28T04:39:21;23.90;;;19.17;;
57107;SDS011;42987;52.916;6.542;2023-02-28T04:41:47;21.02;;;18.50;;
57107;SDS011;42987;52.916;6.542;2023-02-28T04:44:13;24.23;;;19.92;;
57107;SDS011;42987;52.916;6.542;2023-02-28T04:46:40;28.33;;;21.50;;
57107;SDS011;42987;52.916;6.542;2023-02-28T04:49:06;26.60;;;21.90;;
57107;SDS011;42987;52.916;6.542;2023-02-28T04:51:33;21.90;;;19.00;;
57107;SDS011;42987;52.916;6.542;2023-02-28T04:54:01;30.85;;;23.25;;
57107;SDS011;42987;52.916;6.542;2023-02-28T04:56:27;27.13;;;21.60;;
57107;SDS011;42987;52.916;6.542;2023-02-28T04:58:53;52.88;;;28.17;;
57107;SDS011;42987;52.916;6.542;2023-02-28T05:01:21;27.20;;;22.27;;
57107;SDS011;42987;52.916;6.542;2023-02-28T05:03:50;40.33;;;26.30;;
57107;SDS011;42987;52.916;6.542;2023-02-28T05:06:17;34.08;;;24.90;;
57107;SDS011;42987;52.916;6.542;2023-02-28T05:08:45;31.90;;;24.00;;
57107;SDS011;42987;52.916;6.542;2023-02-28T05:11:13;24.98;;;21.15;;
57107;SDS011;42987;52.916;6.542;2023-02-28T05:13:44;35.58;;;26.77;;
57107;SDS011;42987;52.916;6.542;2023-02-28T05:16:10;38.40;;;25.23;;
57107;SDS011;42987;52.916;6.542;2023-02-28T05:18:36;44.45;;;28.42;;
57107;SDS011;42987;52.916;6.542;2023-02-28T05:21:02;38.53;;;26.38;;
57107;SDS011;42987;52.916;6.542;2023-02-28T05:23:28;57.10;;;31.37;;
57107;SDS011;42987;52.916;6.542;2023-02-28T05:25:54;49.60;;;29.30;;
57107;SDS011;42987;52.916;6.542;2023-02-28T05:28:21;46.87;;;28.60;;
57107;SDS011;42987;52.916;6.542;2023-02-28T05:30:46;43.55;;;29.67;;
57107;SDS011;42987;52.916;6.542;2023-02-28T05:33:12;33.72;;;26.00;;
57107;SDS011;42987;52.916;6.542;2023-02-28T05:35:39;49.28;;;30.17;;
57107;SDS011;42987;52.916;6.542;2023-02-28T05:38:06;31.02;;;24.15;;
57107;SDS011;42987;52.916;6.542;2023-02-28T05:40:32;37.15;;;25.88;;
57107;SDS011;42987;52.916;6.542;2023-02-28T05:42:58;33.45;;;23.45;;
57107;SDS011;42987;52.916;6.542;2023-02-28T05:45:23;25.23;;;22.08;;
57107;SDS011;42987;52.916;6.542;2023-02-28T05:47:53;31.52;;;23.95;;
57107;SDS011;42987;52.916;6.542;2023-02-28T05:50:20;30.90;;;23.50;;
57107;SDS011;42987;52.916;6.542;2023-02-28T05:52:50;28.70;;;23.00;;
57107;SDS011;42987;52.916;6.542;2023-02-28T05:55:16;31.73;;;25.48;;
57107;SDS011;42987;52.916;6.542;2023-02-28T05:57:42;47.33;;;30.30;;
57107;SDS011;42987;52.916;6.542;2023-02-28T06:00:08;42.75;;;28.13;;
57107;SDS011;42987;52.916;6.542;2023-02-28T06:02:34;32.58;;;24.48;;
57107;SDS011;42987;52.916;6.542;2023-02-28T06:05:00;37.90;;;27.77;;
57107;SDS011;42987;52.916;6.542;2023-02-28T06:07:26;49.60;;;32.53;;
57107;SDS011;42987;52.916;6.542;2023-02-28T06:09:52;43.38;;;29.63;;
57107;SDS011;42987;52.916;6.542;2023-02-28T06:12:18;42.38;;;28.10;;
57107;SDS011;42987;52.916;6.542;2023-02-28T06:14:44;38.42;;;29.55;;
57107;SDS011;42987;52.916;6.542;2023-02-28T06:17:09;68.88;;;34.90;;
57107;SDS011;42987;52.916;6.542;2023-02-28T06:19:36;58.05;;;33.40;;
57107;SDS011;42987;52.916;6.542;2023-02-28T06:22:04;61.15;;;33.13;;
57107;SDS011;42987;52.916;6.542;2023-02-28T06:24:30;49.25;;;30.45;;
57107;SDS011;42987;52.916;6.542;2023-02-28T06:26:56;66.90;;;36.53;;
57107;SDS011;42987;52.916;6.542;2023-02-28T06:29:24;37.13;;;29.03;;
57107;SDS011;42987;52.916;6.542;2023-02-28T06:31:50;36.78;;;27.48;;
57107;SDS011;42987;52.916;6.542;2023-02-28T06:34:16;50.58;;;32.33;;
57107;SDS011;42987;52.916;6.542;2023-02-28T06:36:42;64.93;;;35.80;;
57107;SDS011;42987;52.916;6.542;2023-02-28T06:39:08;34.63;;;26.13;;
57107;SDS011;42987;52.916;6.542;2023-02-28T06:41:34;30.03;;;24.60;;
57107;SDS011;42987;52.916;6.542;2023-02-28T06:44:10;37.43;;;27.07;;
57107;SDS011;42987;52.916;6.542;2023-02-28T06:46:38;39.77;;;27.87;;
57107;SDS011;42987;52.916;6.542;2023-02-28T06:49:08;45.85;;;30.58;;
57107;SDS011;42987;52.916;6.542;2023-02-28T06:51:35;51.08;;;31.65;;
57107;SDS011;42987;52.916;6.542;2023-02-28T06:54:05;39.88;;;29.00;;
57107;SDS011;42987;52.916;6.542;2023-02-28T06:56:34;48.30;;;31.70;;
57107;SDS011;42987;52.916;6.542;2023-02-28T06:59:00;49.07;;;30.50;;
57107;SDS011;42987;52.916;6.542;2023-02-28T07:01:26;45.03;;;29.17;;
57107;SDS011;42987;52.916;6.542;2023-02-28T07:03:53;48.27;;;32.47;;
57107;SDS011;42987;52.916;6.542;2023-02-28T07:06:20;38.67;;;28.90;;
57107;SDS011;42987;52.916;6.542;2023-02-28T07:08:50;48.58;;;31.88;;
57107;SDS011;42987;52.916;6.542;2023-02-28T07:11:18;41.45;;;29.75;;
57107;SDS011;42987;52.916;6.542;2023-02-28T07:13:48;42.65;;;29.98;;
57107;SDS011;42987;52.916;6.542;2023-02-28T07:16:18;53.65;;;31.00;;
57107;SDS011;42987;52.916;6.542;2023-02-28T07:18:44;37.92;;;27.08;;
57107;SDS011;42987;52.916;6.542;2023-02-28T07:21:09;28.70;;;23.60;;
57107;SDS011;42987;52.916;6.542;2023-02-28T07:23:36;39.53;;;28.42;;
57107;SDS011;42987;52.916;6.542;2023-02-28T07:26:03;39.58;;;28.20;;
57107;SDS011;42987;52.916;6.542;2023-02-28T07:28:30;42.33;;;30.63;;
57107;SDS011;42987;52.916;6.542;2023-02-28T07:30:56;36.70;;;26.42;;
57107;SDS011;42987;52.916;6.542;2023-02-28T07:33:21;35.13;;;26.25;;
57107;SDS011;42987;52.916;6.542;2023-02-28T07:35:49;35.10;;;26.70;;
57107;SDS011;42987;52.916;6.542;2023-02-28T07:38:14;40.17;;;28.02;;
57107;SDS011;42987;52.916;6.542;2023-02-28T07:40:40;40.27;;;29.37;;
57107;SDS011;42987;52.916;6.542;2023-02-28T07:43:06;28.83;;;22.45;;
57107;SDS011;42987;52.916;6.542;2023-02-28T07:45:32;29.17;;;23.85;;
57107;SDS011;42987;52.916;6.542;2023-02-28T07:47:59;36.38;;;27.35;;
57107;SDS011;42987;52.916;6.542;2023-02-28T07:50:25;31.80;;;25.13;;
57107;SDS011;42987;52.916;6.542;2023-02-28T07:52:56;34.65;;;26.65;;
57107;SDS011;42987;52.916;6.542;2023-02-28T07:55:23;28.30;;;24.13;;
57107;SDS011;42987;52.916;6.542;2023-02-28T07:57:49;37.53;;;30.15;;
57107;SDS011;42987;52.916;6.542;2023-02-28T08:00:14;37.92;;;28.67;;
57107;SDS011;42987;52.916;6.542;2023-02-28T08:02:40;26.70;;;23.23;;
57107;SDS011;42987;52.916;6.542;2023-02-28T08:05:07;27.35;;;23.08;;
57107;SDS011;42987;52.916;6.542;2023-02-28T08:07:33;28.38;;;24.25;;
57107;SDS011;42987;52.916;6.542;2023-02-28T08:09:59;28.08;;;25.08;;
57107;SDS011;42987;52.916;6.542;2023-02-28T08:12:25;35.13;;;26.07;;
57107;SDS011;42987;52.916;6.542;2023-02-28T08:14:51;28.05;;;24.67;;
57107;SDS011;42987;52.916;6.542;2023-02-28T08:17:17;26.77;;;22.83;;
57107;SDS011;42987;52.916;6.542;2023-02-28T08:19:46;24.35;;;21.70;;
57107;SDS011;42987;52.916;6.542;2023-02-28T08:22:12;37.47;;;27.80;;
57107;SDS011;42987;52.916;6.542;2023-02-28T08:24:38;31.10;;;26.13;;
57107;SDS011;42987;52.916;6.542;2023-02-28T08:27:07;24.20;;;21.67;;
57107;SDS011;42987;52.916;6.542;2023-02-28T08:29:33;29.57;;;26.07;;
57107;SDS011;42987;52.916;6.542;2023-02-28T08:32:01;23.98;;;21.48;;
57107;SDS011;42987;52.916;6.542;2023-02-28T08:34:27;24.03;;;21.40;;
57107;SDS011;42987;52.916;6.542;2023-02-28T08:36:53;25.27;;;22.55;;
57107;SDS011;42987;52.916;6.542;2023-02-28T08:39:18;24.67;;;20.98;;
57107;SDS011;42987;52.916;6.542;2023-02-28T08:41:45;25.10;;;22.40;;
57107;SDS011;42987;52.916;6.542;2023-02-28T08:44:10;25.40;;;21.83;;
57107;SDS011;42987;52.916;6.542;2023-02-28T08:46:36;25.60;;;21.80;;
57107;SDS011;42987;52.916;6.542;2023-02-28T08:49:03;25.63;;;21.23;;
57107;SDS011;42987;52.916;6.542;2023-02-28T08:51:29;21.33;;;19.02;;
57107;SDS011;42987;52.916;6.542;2023-02-28T08:53:57;21.95;;;19.65;;
57107;SDS011;42987;52.916;6.542;2023-02-28T08:56:25;23.90;;;21.25;;
57107;SDS011;42987;52.916;6.542;2023-02-28T08:58:51;21.88;;;19.33;;
57107;SDS011;42987;52.916;6.542;2023-02-28T09:01:23;21.23;;;18.88;;
57107;SDS011;42987;52.916;6.542;2023-02-28T09:03:51;21.17;;;17.70;;
57107;SDS011;42987;52.916;6.542;2023-02-28T09:06:19;19.73;;;17.70;;
57107;SDS011;42987;52.916;6.542;2023-02-28T09:08:47;19.92;;;17.08;;
57107;SDS011;42987;52.916;6.542;2023-02-28T09:11:13;18.23;;;16.15;;
57107;SDS011;42987;52.916;6.542;2023-02-28T09:13:39;19.30;;;17.33;;
57107;SDS011;42987;52.916;6.542;2023-02-28T09:16:06;20.65;;;18.20;;
57107;SDS011;42987;52.916;6.542;2023-02-28T09:18:37;18.75;;;15.15;;
57107;SDS011;42987;52.916;6.542;2023-02-28T09:21:04;16.38;;;14.68;;
57107;SDS011;42987;52.916;6.542;2023-02-28T09:23:36;19.23;;;15.80;;
57107;SDS011;42987;52.916;6.542;2023-02-28T09:26:03;16.13;;;14.52;;
57107;SDS011;42987;52.916;6.542;2023-02-28T09:28:30;15.98;;;14.38;;
57107;SDS011;42987;52.916;6.542;2023-02-28T09:30:55;16.38;;;14.77;;
57107;SDS011;42987;52.916;6.542;2023-02-28T09:33:24;17.52;;;14.13;;
57107;SDS011;42987;52.916;6.542;2023-02-28T09:35:56;14.60;;;12.90;;
57107;SDS011;42987;52.916;6.542;2023-02-28T09:38:24;15.13;;;13.52;;
57107;SDS011;42987;52.916;6.542;2023-02-28T09:40:52;14.23;;;12.20;;
57107;SDS011;42987;52.916;6.542;2023-02-28T09:43:21;13.07;;;11.68;;
57107;SDS011;42987;52.916;6.542;2023-02-28T09:45:52;13.10;;;11.85;;
57107;SDS011;42987;52.916;6.542;2023-02-28T09:48:34;14.88;;;12.50;;
57107;SDS011;42987;52.916;6.542;2023-02-28T09:51:21;12.85;;;8.48;;
57107;SDS011;42987;52.916;6.542;2023-02-28T09:53:52;12.45;;;9.95;;
57107;SDS011;42987;52.916;6.542;2023-02-28T09:56:28;11.40;;;9.35;;
57107;SDS011;42987;52.916;6.542;2023-02-28T09:58:59;9.82;;;6.95;;
57107;SDS011;42987;52.916;6.542;2023-02-28T10:06:51;9.60;;;8.18;;
57107;SDS011;42987;52.916;6.542;2023-02-28T10:09:19;11.52;;;9.43;;
57107;SDS011;42987;52.916;6.542;2023-02-28T10:11:50;9.60;;;8.52;;
57107;SDS011;42987;52.916;6.542;2023-02-28T10:14:19;9.57;;;8.55;;
57107;SDS011;42987;52.916;6.542;2023-02-28T10:22:05;11.20;;;8.75;;
57107;SDS011;42987;52.916;6.542;2023-02-28T10:24:45;10.07;;;8.25;;
57107;SDS011;42987;52.916;6.542;2023-02-28T10:27:20;12.43;;;8.90;;
57107;SDS011;42987;52.916;6.542;2023-02-28T10:30:03;10.95;;;8.70;;
57107;SDS011;42987;52.916;6.542;2023-02-28T10:32:33;10.82;;;8.35;;
57107;SDS011;42987;52.916;6.542;2023-02-28T10:37:43;10.50;;;9.10;;
57107;SDS011;42987;52.916;6.542;2023-02-28T10:42:54;13.68;;;10.48;;
57107;SDS011;42987;52.916;6.542;2023-02-28T10:45:20;13.20;;;10.35;;
57107;SDS011;42987;52.916;6.542;2023-02-28T10:47:53;11.10;;;9.90;;
57107;SDS011;42987;52.916;6.542;2023-02-28T10:50:26;11.20;;;9.15;;
57107;SDS011;42987;52.916;6.542;2023-02-28T11:03:51;10.57;;;9.45;;
57107;SDS011;42987;52.916;6.542;2023-02-28T11:06:19;8.82;;;7.93;;
57107;SDS011;42987;52.916;6.542;2023-02-28T11:08:47;9.15;;;6.75;;
57107;SDS011;42987;52.916;6.542;2023-02-28T11:11:17;7.78;;;6.97;;
57107;SDS011;42987;52.916;6.542;2023-02-28T11:13:45;9.82;;;6.88;;
57107;SDS011;42987;52.916;6.542;2023-02-28T11:16:15;9.50;;;7.78;;
57107;SDS011;42987;52.916;6.542;2023-02-28T11:21:15;10.73;;;7.90;;
57107;SDS011;42987;52.916;6.542;2023-02-28T11:23:44;9.90;;;7.57;;
57107;SDS011;42987;52.916;6.542;2023-02-28T11:26:11;9.40;;;7.93;;
57107;SDS011;42987;52.916;6.542;2023-02-28T11:29:03;10.40;;;8.75;;
57107;SDS011;42987;52.916;6.542;2023-02-28T11:31:52;8.85;;;7.25;;
57107;SDS011;42987;52.916;6.542;2023-02-28T11:34:43;10.00;;;8.75;;
57107;SDS011;42987;52.916;6.542;2023-02-28T11:37:11;8.65;;;7.75;;
57107;SDS011;42987;52.916;6.542;2023-02-28T11:39:43;10.98;;;8.38;;
57107;SDS011;42987;52.916;6.542;2023-02-28T11:56:31;9.23;;;7.10;;
57107;SDS011;42987;52.916;6.542;2023-02-28T12:01:52;8.52;;;6.57;;
57107;SDS011;42987;52.916;6.542;2023-02-28T12:04:49;8.35;;;6.47;;
57107;SDS011;42987;52.916;6.542;2023-02-28T12:11:14;8.32;;;6.50;;
57107;SDS011;42987;52.916;6.542;2023-02-28T12:19:04;7.93;;;5.38;;
57107;SDS011;42987;52.916;6.542;2023-02-28T12:26:50;13.75;;;11.30;;
57107;SDS011;42987;52.916;6.542;2023-02-28T12:31:58;7.45;;;5.28;;
57107;SDS011;42987;52.916;6.542;2023-02-28T12:34:37;7.72;;;5.47;;
57107;SDS011;42987;52.916;6.542;2023-02-28T12:37:07;5.43;;;4.60;;
57107;SDS011;42987;52.916;6.542;2023-02-28T12:39:49;6.25;;;4.25;;
57107;SDS011;42987;52.916;6.542;2023-02-28T12:42:26;7.57;;;6.50;;
57107;SDS011;42987;52.916;6.542;2023-02-28T12:44:59;8.98;;;6.40;;
57107;SDS011;42987;52.916;6.542;2023-02-28T12:47:36;7.85;;;6.57;;
57107;SDS011;42987;52.916;6.542;2023-02-28T12:50:06;6.93;;;4.55;;
57107;SDS011;42987;52.916;6.542;2023-02-28T13:09:56;5.80;;;4.75;;
57107;SDS011;42987;52.916;6.542;2023-02-28T13:12:24;6.28;;;4.75;;
57107;SDS011;42987;52.916;6.542;2023-02-28T13:15:00;5.82;;;4.60;;
57107;SDS011;42987;52.916;6.542;2023-02-28T13:17:30;5.35;;;4.80;;
57107;SDS011;42987;52.916;6.542;2023-02-28T13:19:57;6.57;;;4.97;;
57107;SDS011;42987;52.916;6.542;2023-02-28T13:27:55;6.15;;;5.20;;
57107;SDS011;42987;52.916;6.542;2023-02-28T13:33:22;6.93;;;5.70;;
57107;SDS011;42987;52.916;6.542;2023-02-28T13:52:10;7.40;;;5.72;;
57107;SDS011;42987;52.916;6.542;2023-02-28T14:03:08;8.05;;;6.30;;
57107;SDS011;42987;52.916;6.542;2023-02-28T14:05:36;6.47;;;5.63;;
57107;SDS011;42987;52.916;6.542;2023-02-28T14:10:36;7.50;;;5.75;;
57107;SDS011;42987;52.916;6.542;2023-02-28T14:13:14;9.43;;;6.10;;
57107;SDS011;42987;52.916;6.542;2023-02-28T14:16:02;7.85;;;6.70;;
57107;SDS011;42987;52.916;6.542;2023-02-28T14:18:32;8.07;;;6.13;;
57107;SDS011;42987;52.916;6.542;2023-02-28T14:26:49;6.80;;;5.95;;
57107;SDS011;42987;52.916;6.542;2023-02-28T14:37:28;7.38;;;5.57;;
57107;SDS011;42987;52.916;6.542;2023-02-28T14:39:57;7.15;;;5.88;;
57107;SDS011;42987;52.916;6.542;2023-02-28T14:44:59;9.23;;;6.03;;
57107;SDS011;42987;52.916;6.542;2023-02-28T14:47:27;7.93;;;5.88;;
57107;SDS011;42987;52.916;6.542;2023-02-28T14:49:57;9.02;;;5.75;;
57107;SDS011;42987;52.916;6.542;2023-02-28T14:52:24;7.68;;;6.13;;
57107;SDS011;42987;52.916;6.542;2023-02-28T14:54:58;8.65;;;6.03;;
57107;SDS011;42987;52.916;6.542;2023-02-28T14:57:29;6.93;;;6.03;;
57107;SDS011;42987;52.916;6.542;2023-02-28T15:00:02;7.30;;;5.78;;
57107;SDS011;42987;52.916;6.542;2023-02-28T15:02:36;8.32;;;6.20;;
57107;SDS011;42987;52.916;6.542;2023-02-28T15:07:43;7.28;;;5.68;;
57107;SDS011;42987;52.916;6.542;2023-02-28T15:10:16;7.10;;;5.53;;
57107;SDS011;42987;52.916;6.542;2023-02-28T15:12:48;7.82;;;5.82;;
57107;SDS011;42987;52.916;6.542;2023-02-28T15:15:18;8.88;;;6.30;;
57107;SDS011;42987;52.916;6.542;2023-02-28T15:17:46;7.07;;;5.03;;
57107;SDS011;42987;52.916;6.542;2023-02-28T15:20:21;7.80;;;5.90;;
57107;SDS011;42987;52.916;6.542;2023-02-28T15:22:49;7.07;;;5.40;;
57107;SDS011;42987;52.916;6.542;2023-02-28T15:25:21;7.00;;;5.85;;
57107;SDS011;42987;52.916;6.542;2023-02-28T15:27:50;6.65;;;5.50;;
57107;SDS011;42987;52.916;6.542;2023-02-28T15:30:18;7.43;;;5.60;;
57107;SDS011;42987;52.916;6.542;2023-02-28T15:33:01;7.40;;;5.60;;
57107;SDS011;42987;52.916;6.542;2023-02-28T15:38:05;8.60;;;6.25;;
57107;SDS011;42987;52.916;6.542;2023-02-28T15:40:42;7.72;;;6.32;;
57107;SDS011;42987;52.916;6.542;2023-02-28T15:43:14;8.05;;;6.80;;
57107;SDS011;42987;52.916;6.542;2023-02-28T15:45:44;7.80;;;6.25;;
57107;SDS011;42987;52.916;6.542;2023-02-28T15:50:52;7.10;;;5.55;;
57107;SDS011;42987;52.916;6.542;2023-02-28T15:53:24;6.85;;;5.50;;
57107;SDS011;42987;52.916;6.542;2023-02-28T15:56:27;8.32;;;5.88;;
57107;SDS011;42987;52.916;6.542;2023-02-28T15:58:46;6.45;;;5.53;;
57107;SDS011;42987;52.916;6.542;2023-02-28T16:01:25;8.90;;;5.63;;
57107;SDS011;42987;52.916;6.542;2023-02-28T16:03:56;7.07;;;6.18;;
57107;SDS011;42987;52.916;6.542;2023-02-28T16:08:59;8.65;;;6.28;;
57107;SDS011;42987;52.916;6.542;2023-02-28T16:11:25;6.63;;;5.93;;
57107;SDS011;42987;52.916;6.542;2023-02-28T16:13:51;8.18;;;6.68;;
57107;SDS011;42987;52.916;6.542;2023-02-28T16:16:19;7.18;;;6.35;;
57107;SDS011;42987;52.916;6.542;2023-02-28T16:18:47;12.05;;;6.85;;
57107;SDS011;42987;52.916;6.542;2023-02-28T16:21:13;9.02;;;7.18;;
57107;SDS011;42987;52.916;6.542;2023-02-28T16:23:38;8.27;;;7.38;;
57107;SDS011;42987;52.916;6.542;2023-02-28T16:26:04;8.80;;;6.70;;
57107;SDS011;42987;52.916;6.542;2023-02-28T16:28:33;9.10;;;7.03;;
57107;SDS011;42987;52.916;6.542;2023-02-28T16:31:02;8.15;;;6.50;;
57107;SDS011;42987;52.916;6.542;2023-02-28T16:33:31;7.68;;;6.57;;
57107;SDS011;42987;52.916;6.542;2023-02-28T16:35:58;9.07;;;7.38;;
57107;SDS011;42987;52.916;6.542;2023-02-28T16:38:24;9.13;;;7.18;;
57107;SDS011;42987;52.916;6.542;2023-02-28T16:40:51;8.45;;;6.80;;
57107;SDS011;42987;52.916;6.542;2023-02-28T16:43:23;8.65;;;7.22;;
57107;SDS011;42987;52.916;6.542;2023-02-28T16:45:57;9.27;;;8.35;;
57107;SDS011;42987;52.916;6.542;2023-02-28T16:48:24;8.57;;;7.72;;
57107;SDS011;42987;52.916;6.542;2023-02-28T16:50:50;8.93;;;7.97;;
57107;SDS011;42987;52.916;6.542;2023-02-28T16:53:16;8.75;;;7.85;;
57107;SDS011;42987;52.916;6.542;2023-02-28T16:55:42;8.48;;;7.60;;
57107;SDS011;42987;52.916;6.542;2023-02-28T16:58:11;10.98;;;7.88;;
57107;SDS011;42987;52.916;6.542;2023-02-28T17:00:40;8.93;;;8.02;;
57107;SDS011;42987;52.916;6.542;2023-02-28T17:03:10;9.55;;;8.13;;
57107;SDS011;42987;52.916;6.542;2023-02-28T17:05:50;10.30;;;8.63;;
57107;SDS011;42987;52.916;6.542;2023-02-28T17:08:16;9.50;;;8.07;;
57107;SDS011;42987;52.916;6.542;2023-02-28T17:10:42;9.27;;;8.00;;
57107;SDS011;42987;52.916;6.542;2023-02-28T17:13:08;9.15;;;8.25;;
57107;SDS011;42987;52.916;6.542;2023-02-28T17:15:34;11.80;;;9.13;;
57107;SDS011;42987;52.916;6.542;2023-02-28T17:18:01;14.80;;;11.05;;
57107;SDS011;42987;52.916;6.542;2023-02-28T17:20:28;9.77;;;7.90;;
57107;SDS011;42987;52.916;6.542;2023-02-28T17:22:55;11.60;;;9.68;;
57107;SDS011;42987;52.916;6.542;2023-02-28T17:25:21;12.20;;;10.25;;
57107;SDS011;42987;52.916;6.542;2023-02-28T17:27:48;15.05;;;13.23;;
57107;SDS011;42987;52.916;6.542;2023-02-28T17:30:34;14.35;;;12.85;;
57107;SDS011;42987;52.916;6.542;2023-02-28T17:33:01;14.20;;;12.25;;
57107;SDS011;42987;52.916;6.542;2023-02-28T17:35:26;12.50;;;11.02;;
57107;SDS011;42987;52.916;6.542;2023-02-28T17:37:52;12.40;;;10.88;;
57107;SDS011;42987;52.916;6.542;2023-02-28T17:40:20;11.93;;;10.82;;
57107;SDS011;42987;52.916;6.542;2023-02-28T17:42:47;16.17;;;14.57;;
57107;SDS011;42987;52.916;6.542;2023-02-28T17:45:13;19.70;;;17.70;;
57107;SDS011;42987;52.916;6.542;2023-02-28T17:47:43;19.98;;;17.90;;
57107;SDS011;42987;52.916;6.542;2023-02-28T17:50:17;18.52;;;16.75;;
57107;SDS011;42987;52.916;6.542;2023-02-28T17:52:45;17.25;;;15.60;;